sensor_id;sensor_type;location;lat;lon;timestamp;noise_LAeq;noise_LA_min;noise_LA_max;noise_LA01;noise_LA95
64545;Laerm;50936;51.660;5.616;2022-10-16T00:01:30;52.02;42.76;67.60;;
64545;Laerm;50936;51.660;5.616;2022-10-16T00:04:17;56.45;43.29;69.64;;
64545;Laerm;50936;51.660;5.616;2022-10-16T00:07:04;49.22;42.88;66.67;;
64545;Laerm;50936;51.660;5.616;2022-10-16T00:09:51;51.26;42.98;62.41;;
64545;Laerm;50936;51.660;5.616;2022-10-16T00:12:38;52.40;42.98;65.51;;
64545;Laerm;50936;51.660;5.616;2022-10-16T00:15:25;54.30;42.65;68.96;;
64545;Laerm;50936;51.660;5.616;2022-10-16T00:18:12;48.74;44.69;55.42;;
64545;Laerm;50936;51.660;5.616;2022-10-16T00:21:07;51.96;43.29;64.92;;
64545;Laerm;50936;51.660;5.616;2022-10-16T00:24:06;50.88;44.07;62.85;;
64545;Laerm;50936;51.660;5.616;2022-10-16T00:26:53;51.80;43.58;66.84;;
64545;Laerm;50936;51.660;5.616;2022-10-16T00:29:40;48.37;43.34;60.92;;
64545;Laerm;50936;51.660;5.616;2022-10-16T00:32:26;55.56;43.34;71.01;;
64545;Laerm;50936;51.660;5.616;2022-10-16T00:35:14;52.07;43.39;66.52;;
64545;Laerm;50936;51.660;5.616;2022-10-16T00:38:01;54.01;42.98;70.42;;
64545;Laerm;50936;51.660;5.616;2022-10-16T00:40:47;55.32;42.29;69.83;;
64545;Laerm;50936;51.660;5.616;2022-10-16T00:43:46;48.75;42.59;62.01;;
64545;Laerm;50936;51.660;5.616;2022-10-16T00:46:42;58.26;43.49;75.52;;
64545;Laerm;50936;51.660;5.616;2022-10-16T00:49:29;53.71;43.24;66.21;;
64545;Laerm;50936;51.660;5.616;2022-10-16T00:52:16;45.98;42.35;54.10;;
64545;Laerm;50936;51.660;5.616;2022-10-16T00:55:06;54.61;42.79;66.84;;
64545;Laerm;50936;51.660;5.616;2022-10-16T00:57:54;49.33;42.09;66.66;;
64545;Laerm;50936;51.660;5.616;2022-10-16T01:00:40;56.71;43.49;70.67;;
64545;Laerm;50936;51.660;5.616;2022-10-16T01:03:34;55.43;43.14;69.46;;
64545;Laerm;50936;51.660;5.616;2022-10-16T01:06:30;53.99;42.93;65.86;;
64545;Laerm;50936;51.660;5.616;2022-10-16T01:13:11;49.30;43.24;65.61;;
64545;Laerm;50936;51.660;5.616;2022-10-16T01:16:20;50.96;41.75;68.21;;
64545;Laerm;50936;51.660;5.616;2022-10-16T01:19:40;53.98;42.53;71.52;;
64545;Laerm;50936;51.660;5.616;2022-10-16T01:23:04;49.30;42.53;61.74;;
64545;Laerm;50936;51.660;5.616;2022-10-16T01:28:53;52.80;42.41;67.35;;
64545;Laerm;50936;51.660;5.616;2022-10-16T01:31:48;49.59;43.19;65.27;;
64545;Laerm;50936;51.660;5.616;2022-10-16T01:37:43;50.47;42.59;65.01;;
64545;Laerm;50936;51.660;5.616;2022-10-16T01:40:36;48.59;42.41;62.00;;
64545;Laerm;50936;51.660;5.616;2022-10-16T01:43:33;54.40;43.09;71.57;;
64545;Laerm;50936;51.660;5.616;2022-10-16T01:46:23;46.41;42.71;57.22;;
64545;Laerm;50936;51.660;5.616;2022-10-16T01:49:12;54.93;43.04;68.15;;
64545;Laerm;50936;51.660;5.616;2022-10-16T01:52:05;54.56;43.24;76.27;;
64545;Laerm;50936;51.660;5.616;2022-10-16T01:54:57;52.22;43.04;68.86;;
64545;Laerm;50936;51.660;5.616;2022-10-16T01:57:49;46.16;42.53;58.65;;
64545;Laerm;50936;51.660;5.616;2022-10-16T02:00:43;53.87;42.29;69.16;;
64545;Laerm;50936;51.660;5.616;2022-10-16T02:03:33;46.95;41.96;61.06;;
64545;Laerm;50936;51.660;5.616;2022-10-16T02:06:21;46.22;42.47;57.81;;
64545;Laerm;50936;51.660;5.616;2022-10-16T02:09:09;47.95;42.93;63.43;;
64545;Laerm;50936;51.660;5.616;2022-10-16T02:11:59;52.83;43.68;65.65;;
64545;Laerm;50936;51.660;5.616;2022-10-16T02:14:49;51.23;43.29;64.53;;
64545;Laerm;50936;51.660;5.616;2022-10-16T02:17:36;47.82;42.22;66.74;;
64545;Laerm;50936;51.660;5.616;2022-10-16T02:20:28;48.19;42.29;60.28;;
64545;Laerm;50936;51.660;5.616;2022-10-16T02:23:01;46.24;43.24;53.52;;
64545;Laerm;50936;51.660;5.616;2022-10-16T02:25:38;52.10;42.29;68.42;;
64545;Laerm;50936;51.660;5.616;2022-10-16T02:28:14;44.38;41.82;59.13;;
64545;Laerm;50936;51.660;5.616;2022-10-16T02:30:59;55.37;42.35;72.67;;
64545;Laerm;50936;51.660;5.616;2022-10-16T02:33:30;51.44;42.41;66.77;;
64545;Laerm;50936;51.660;5.616;2022-10-16T02:35:58;55.26;42.76;68.65;;
64545;Laerm;50936;51.660;5.616;2022-10-16T02:38:26;44.89;41.38;58.49;;
64545;Laerm;50936;51.660;5.616;2022-10-16T02:40:54;47.07;42.22;61.04;;
64545;Laerm;50936;51.660;5.616;2022-10-16T02:43:21;53.54;41.96;66.00;;
64545;Laerm;50936;51.660;5.616;2022-10-16T02:45:48;53.39;41.96;73.44;;
64545;Laerm;50936;51.660;5.616;2022-10-16T02:48:15;55.07;42.98;68.68;;
64545;Laerm;50936;51.660;5.616;2022-10-16T02:50:42;49.86;42.16;59.05;;
64545;Laerm;50936;51.660;5.616;2022-10-16T02:53:08;44.69;41.96;55.97;;
64545;Laerm;50936;51.660;5.616;2022-10-16T02:55:35;46.36;41.89;61.93;;
64545;Laerm;50936;51.660;5.616;2022-10-16T02:58:02;52.09;42.22;67.19;;
64545;Laerm;50936;51.660;5.616;2022-10-16T03:00:29;50.10;41.75;63.27;;
64545;Laerm;50936;51.660;5.616;2022-10-16T03:02:56;44.36;41.46;53.25;;
64545;Laerm;50936;51.660;5.616;2022-10-16T03:05:22;53.25;41.46;68.10;;
64545;Laerm;50936;51.660;5.616;2022-10-16T03:07:49;52.00;41.81;68.09;;
64545;Laerm;50936;51.660;5.616;2022-10-16T03:10:16;44.01;41.61;55.98;;
64545;Laerm;50936;51.660;5.616;2022-10-16T03:12:43;43.73;41.46;54.81;;
64545;Laerm;50936;51.660;5.616;2022-10-16T03:15:10;44.94;41.61;51.93;;
64545;Laerm;50936;51.660;5.616;2022-10-16T03:17:36;44.85;41.38;53.64;;
64545;Laerm;50936;51.660;5.616;2022-10-16T03:20:04;44.07;41.68;53.62;;
64545;Laerm;50936;51.660;5.616;2022-10-16T03:22:31;45.23;41.75;63.49;;
64545;Laerm;50936;51.660;5.616;2022-10-16T03:24:57;50.19;41.96;65.34;;
64545;Laerm;50936;51.660;5.616;2022-10-16T03:27:24;49.44;41.82;61.55;;
64545;Laerm;50936;51.660;5.616;2022-10-16T03:29:52;59.33;41.75;76.52;;
64545;Laerm;50936;51.660;5.616;2022-10-16T03:32:18;45.13;41.96;52.92;;
64545;Laerm;50936;51.660;5.616;2022-10-16T03:34:46;64.79;42.03;98.51;;
64545;Laerm;50936;51.660;5.616;2022-10-16T03:37:13;53.55;42.16;68.85;;
64545;Laerm;50936;51.660;5.616;2022-10-16T03:39:40;45.27;41.96;52.81;;
64545;Laerm;50936;51.660;5.616;2022-10-16T03:42:07;45.34;41.53;61.78;;
64545;Laerm;50936;51.660;5.616;2022-10-16T03:44:34;49.29;42.53;65.71;;
64545;Laerm;50936;51.660;5.616;2022-10-16T03:47:00;47.10;42.59;57.22;;
64545;Laerm;50936;51.660;5.616;2022-10-16T03:49:27;45.28;41.89;55.78;;
64545;Laerm;50936;51.660;5.616;2022-10-16T03:51:54;44.91;42.16;54.16;;
64545;Laerm;50936;51.660;5.616;2022-10-16T03:54:21;51.67;42.16;66.17;;
64545;Laerm;50936;51.660;5.616;2022-10-16T03:56:48;48.42;42.16;62.83;;
64545;Laerm;50936;51.660;5.616;2022-10-16T03:59:15;46.20;41.82;61.32;;
64545;Laerm;50936;51.660;5.616;2022-10-16T04:01:42;46.06;41.68;59.33;;
64545;Laerm;50936;51.660;5.616;2022-10-16T04:04:09;54.46;41.61;68.91;;
64545;Laerm;50936;51.660;5.616;2022-10-16T04:06:35;47.72;42.22;62.79;;
64545;Laerm;50936;51.660;5.616;2022-10-16T04:09:02;47.08;42.65;67.07;;
64545;Laerm;50936;51.660;5.616;2022-10-16T04:11:29;48.32;43.04;56.37;;
64545;Laerm;50936;51.660;5.616;2022-10-16T04:13:56;53.07;43.68;69.31;;
64545;Laerm;50936;51.660;5.616;2022-10-16T04:16:23;48.38;42.16;59.08;;
64545;Laerm;50936;51.660;5.616;2022-10-16T04:18:50;47.38;42.16;69.83;;
64545;Laerm;50936;51.660;5.616;2022-10-16T04:21:16;46.65;42.03;59.63;;
64545;Laerm;50936;51.660;5.616;2022-10-16T04:23:43;51.87;42.36;68.84;;
64545;Laerm;50936;51.660;5.616;2022-10-16T04:26:12;52.38;42.58;68.77;;
64545;Laerm;50936;51.660;5.616;2022-10-16T04:28:38;51.66;42.41;70.34;;
64545;Laerm;50936;51.660;5.616;2022-10-16T04:31:06;52.19;42.16;67.82;;
64545;Laerm;50936;51.660;5.616;2022-10-16T04:33:33;45.73;41.96;58.16;;
64545;Laerm;50936;51.660;5.616;2022-10-16T04:36:02;53.53;42.65;68.72;;
64545;Laerm;50936;51.660;5.616;2022-10-16T04:38:30;45.62;41.53;66.33;;
64545;Laerm;50936;51.660;5.616;2022-10-16T04:40:57;44.39;41.53;57.05;;
64545;Laerm;50936;51.660;5.616;2022-10-16T04:43:24;44.19;41.75;49.79;;
64545;Laerm;50936;51.660;5.616;2022-10-16T04:45:51;55.25;42.03;67.31;;
64545;Laerm;50936;51.660;5.616;2022-10-16T04:48:18;53.17;42.22;68.06;;
64545;Laerm;50936;51.660;5.616;2022-10-16T04:50:45;53.37;42.22;68.36;;
64545;Laerm;50936;51.660;5.616;2022-10-16T04:53:17;49.94;41.75;64.51;;
64545;Laerm;50936;51.660;5.616;2022-10-16T04:55:44;52.47;42.41;67.17;;
64545;Laerm;50936;51.660;5.616;2022-10-16T04:58:11;46.15;42.16;54.02;;
64545;Laerm;50936;51.660;5.616;2022-10-16T05:00:37;47.16;42.47;60.83;;
64545;Laerm;50936;51.660;5.616;2022-10-16T05:03:05;47.19;42.41;62.06;;
64545;Laerm;50936;51.660;5.616;2022-10-16T05:05:36;46.41;42.16;58.06;;
64545;Laerm;50936;51.660;5.616;2022-10-16T05:08:03;52.16;42.65;67.01;;
64545;Laerm;50936;51.660;5.616;2022-10-16T05:10:30;50.43;41.38;65.77;;
64545;Laerm;50936;51.660;5.616;2022-10-16T05:12:57;51.32;42.29;67.33;;
64545;Laerm;50936;51.660;5.616;2022-10-16T05:15:24;52.90;42.59;68.35;;
64545;Laerm;50936;51.660;5.616;2022-10-16T05:17:55;54.16;42.82;68.00;;
64545;Laerm;50936;51.660;5.616;2022-10-16T05:20:23;53.88;42.90;68.33;;
64545;Laerm;50936;51.660;5.616;2022-10-16T05:22:50;51.51;42.29;66.95;;
64545;Laerm;50936;51.660;5.616;2022-10-16T05:25:16;45.71;42.03;57.81;;
64545;Laerm;50936;51.660;5.616;2022-10-16T05:27:47;47.32;41.89;56.66;;
64545;Laerm;50936;51.660;5.616;2022-10-16T05:30:16;52.46;42.09;69.38;;
64545;Laerm;50936;51.660;5.616;2022-10-16T05:32:51;46.42;41.82;58.29;;
64545;Laerm;50936;51.660;5.616;2022-10-16T05:35:18;59.08;42.71;75.03;;
64545;Laerm;50936;51.660;5.616;2022-10-16T05:37:46;52.75;42.16;66.43;;
64545;Laerm;50936;51.660;5.616;2022-10-16T05:40:15;45.31;42.13;55.84;;
64545;Laerm;50936;51.660;5.616;2022-10-16T05:42:42;45.74;42.03;56.09;;
64545;Laerm;50936;51.660;5.616;2022-10-16T05:45:11;46.12;42.53;54.91;;
64545;Laerm;50936;51.660;5.616;2022-10-16T05:47:39;52.60;42.22;68.00;;
64545;Laerm;50936;51.660;5.616;2022-10-16T05:50:06;46.52;42.29;54.84;;
64545;Laerm;50936;51.660;5.616;2022-10-16T05:52:33;53.26;42.53;68.48;;
64545;Laerm;50936;51.660;5.616;2022-10-16T05:55:00;58.12;42.35;87.18;;
64545;Laerm;50936;51.660;5.616;2022-10-16T05:57:27;52.62;42.36;65.29;;
64545;Laerm;50936;51.660;5.616;2022-10-16T05:59:54;53.61;42.98;67.15;;
64545;Laerm;50936;51.660;5.616;2022-10-16T06:02:21;46.67;42.29;62.05;;
64545;Laerm;50936;51.660;5.616;2022-10-16T06:04:47;45.78;42.59;55.54;;
64545;Laerm;50936;51.660;5.616;2022-10-16T06:07:14;50.70;42.03;63.35;;
64545;Laerm;50936;51.660;5.616;2022-10-16T06:09:41;50.49;42.16;67.21;;
64545;Laerm;50936;51.660;5.616;2022-10-16T06:12:08;54.86;42.59;68.82;;
64545;Laerm;50936;51.660;5.616;2022-10-16T06:14:35;52.62;42.47;66.43;;
64545;Laerm;50936;51.660;5.616;2022-10-16T06:17:01;48.75;42.09;61.83;;
64545;Laerm;50936;51.660;5.616;2022-10-16T06:19:28;52.18;41.89;67.19;;
64545;Laerm;50936;51.660;5.616;2022-10-16T06:21:55;56.10;43.04;71.86;;
64545;Laerm;50936;51.660;5.616;2022-10-16T06:24:25;56.56;42.93;69.57;;
64545;Laerm;50936;51.660;5.616;2022-10-16T06:26:51;51.88;42.76;63.48;;
64545;Laerm;50936;51.660;5.616;2022-10-16T06:29:18;63.99;42.98;84.23;;
64545;Laerm;50936;51.660;5.616;2022-10-16T06:31:45;47.41;42.53;60.35;;
64545;Laerm;50936;51.660;5.616;2022-10-16T06:34:12;49.83;42.93;62.00;;
64545;Laerm;50936;51.660;5.616;2022-10-16T06:36:40;56.79;43.86;72.35;;
64545;Laerm;50936;51.660;5.616;2022-10-16T06:39:07;56.83;43.04;72.30;;
64545;Laerm;50936;51.660;5.616;2022-10-16T06:41:34;50.17;42.65;67.45;;
64545;Laerm;50936;51.660;5.616;2022-10-16T06:44:14;54.19;42.65;69.76;;
64545;Laerm;50936;51.660;5.616;2022-10-16T06:46:41;58.85;43.04;69.12;;
64545;Laerm;50936;51.660;5.616;2022-10-16T06:49:08;59.21;43.72;69.07;;
64545;Laerm;50936;51.660;5.616;2022-10-16T06:51:35;60.75;43.54;73.52;;
64545;Laerm;50936;51.660;5.616;2022-10-16T06:54:08;56.40;44.47;68.91;;
64545;Laerm;50936;51.660;5.616;2022-10-16T06:56:35;59.14;46.84;66.44;;
64545;Laerm;50936;51.660;5.616;2022-10-16T06:59:03;58.94;45.04;74.23;;
64545;Laerm;50936;51.660;5.616;2022-10-16T07:01:30;58.36;43.68;72.23;;
64545;Laerm;50936;51.660;5.616;2022-10-16T07:03:57;55.14;44.27;66.57;;
64545;Laerm;50936;51.660;5.616;2022-10-16T07:06:26;58.80;46.10;68.94;;
64545;Laerm;50936;51.660;5.616;2022-10-16T07:08:53;59.88;46.20;71.54;;
64545;Laerm;50936;51.660;5.616;2022-10-16T07:11:23;58.22;45.14;74.71;;
64545;Laerm;50936;51.660;5.616;2022-10-16T07:13:51;62.52;47.50;80.98;;
64545;Laerm;50936;51.660;5.616;2022-10-16T07:16:28;60.03;45.69;70.62;;
64545;Laerm;50936;51.660;5.616;2022-10-16T07:19:01;60.60;47.28;69.86;;
64545;Laerm;50936;51.660;5.616;2022-10-16T07:21:32;58.53;45.94;71.42;;
64545;Laerm;50936;51.660;5.616;2022-10-16T07:24:05;59.73;47.55;70.30;;
64545;Laerm;50936;51.660;5.616;2022-10-16T07:26:36;57.62;47.22;71.55;;
64545;Laerm;50936;51.660;5.616;2022-10-16T07:29:03;59.59;47.54;77.32;;
64545;Laerm;50936;51.660;5.616;2022-10-16T07:31:31;58.07;48.69;69.93;;
64545;Laerm;50936;51.660;5.616;2022-10-16T07:33:59;58.23;44.62;68.16;;
64545;Laerm;50936;51.660;5.616;2022-10-16T07:36:26;60.96;47.24;75.75;;
64545;Laerm;50936;51.660;5.616;2022-10-16T07:38:54;74.93;45.89;99.80;;
64545;Laerm;50936;51.660;5.616;2022-10-16T07:41:26;60.35;46.38;77.44;;
64545;Laerm;50936;51.660;5.616;2022-10-16T07:43:54;67.74;45.60;88.42;;
64545;Laerm;50936;51.660;5.616;2022-10-16T07:46:23;59.40;45.89;71.38;;
64545;Laerm;50936;51.660;5.616;2022-10-16T07:48:50;61.58;45.98;70.77;;
64545;Laerm;50936;51.660;5.616;2022-10-16T07:51:20;59.20;47.54;73.34;;
64545;Laerm;50936;51.660;5.616;2022-10-16T07:53:48;62.26;49.10;75.40;;
64545;Laerm;50936;51.660;5.616;2022-10-16T07:56:17;60.32;50.14;78.41;;
64545;Laerm;50936;51.660;5.616;2022-10-16T07:58:45;63.46;51.81;70.61;;
64545;Laerm;50936;51.660;5.616;2022-10-16T08:01:14;62.10;46.73;74.58;;
64545;Laerm;50936;51.660;5.616;2022-10-16T08:03:48;59.91;46.52;67.92;;
64545;Laerm;50936;51.660;5.616;2022-10-16T08:06:17;59.96;48.98;72.11;;
64545;Laerm;50936;51.660;5.616;2022-10-16T08:08:49;64.08;52.00;77.18;;
64545;Laerm;50936;51.660;5.616;2022-10-16T08:11:16;64.29;52.57;80.04;;
64545;Laerm;50936;51.660;5.616;2022-10-16T08:13:43;59.77;50.03;70.95;;
64545;Laerm;50936;51.660;5.616;2022-10-16T08:16:10;61.52;48.64;74.15;;
64545;Laerm;50936;51.660;5.616;2022-10-16T08:18:39;65.18;57.81;73.52;;
64545;Laerm;50936;51.660;5.616;2022-10-16T08:21:15;64.60;54.61;76.08;;
64545;Laerm;50936;51.660;5.616;2022-10-16T08:23:47;63.58;54.76;75.73;;
64545;Laerm;50936;51.660;5.616;2022-10-16T08:26:24;63.24;53.58;82.18;;
64545;Laerm;50936;51.660;5.616;2022-10-16T08:28:51;61.77;51.08;78.63;;
64545;Laerm;50936;51.660;5.616;2022-10-16T08:31:19;61.84;49.35;70.57;;
64545;Laerm;50936;51.660;5.616;2022-10-16T08:33:46;62.73;50.55;77.69;;
64545;Laerm;50936;51.660;5.616;2022-10-16T08:36:15;63.29;50.21;87.46;;
64545;Laerm;50936;51.660;5.616;2022-10-16T08:38:43;65.61;54.47;88.09;;
64545;Laerm;50936;51.660;5.616;2022-10-16T08:41:17;63.47;50.01;80.35;;
64545;Laerm;50936;51.660;5.616;2022-10-16T08:47:08;62.94;51.83;79.64;;
64545;Laerm;50936;51.660;5.616;2022-10-16T08:49:43;60.04;48.39;71.15;;
64545;Laerm;50936;51.660;5.616;2022-10-16T08:52:14;60.85;47.79;71.22;;
64545;Laerm;50936;51.660;5.616;2022-10-16T08:54:55;63.06;51.70;72.79;;
64545;Laerm;50936;51.660;5.616;2022-10-16T08:57:25;63.09;51.56;76.40;;
64545;Laerm;50936;51.660;5.616;2022-10-16T08:59:54;63.02;48.81;74.74;;
64545;Laerm;50936;51.660;5.616;2022-10-16T09:02:29;63.62;49.87;77.00;;
64545;Laerm;50936;51.660;5.616;2022-10-16T09:08:13;63.07;51.56;75.96;;
64545;Laerm;50936;51.660;5.616;2022-10-16T09:10:58;60.86;48.71;82.17;;
64545;Laerm;50936;51.660;5.616;2022-10-16T09:14:06;61.89;49.30;71.75;;
64545;Laerm;50936;51.660;5.616;2022-10-16T09:16:46;61.51;47.48;74.31;;
64545;Laerm;50936;51.660;5.616;2022-10-16T09:19:24;61.93;50.02;73.87;;
64545;Laerm;50936;51.660;5.616;2022-10-16T09:21:55;63.20;51.59;76.37;;
64545;Laerm;50936;51.660;5.616;2022-10-16T09:24:25;61.91;51.01;74.60;;
64545;Laerm;50936;51.660;5.616;2022-10-16T09:26:55;64.69;52.41;79.04;;
64545;Laerm;50936;51.660;5.616;2022-10-16T09:29:24;61.43;50.92;70.96;;
64545;Laerm;50936;51.660;5.616;2022-10-16T09:31:54;64.04;50.64;90.52;;
64545;Laerm;50936;51.660;5.616;2022-10-16T09:34:32;62.56;47.67;81.71;;
64545;Laerm;50936;51.660;5.616;2022-10-16T09:37:05;62.96;51.64;79.50;;
64545;Laerm;50936;51.660;5.616;2022-10-16T09:39:51;62.46;54.16;79.80;;
64545;Laerm;50936;51.660;5.616;2022-10-16T09:42:34;60.73;46.93;73.65;;
64545;Laerm;50936;51.660;5.616;2022-10-16T09:45:04;60.43;49.77;73.65;;
64545;Laerm;50936;51.660;5.616;2022-10-16T09:47:31;64.60;53.50;77.90;;
64545;Laerm;50936;51.660;5.616;2022-10-16T09:50:23;62.55;49.94;77.19;;
64545;Laerm;50936;51.660;5.616;2022-10-16T09:53:02;61.11;50.85;70.35;;
64545;Laerm;50936;51.660;5.616;2022-10-16T09:55:28;62.02;49.07;73.40;;
64545;Laerm;50936;51.660;5.616;2022-10-16T09:57:55;61.49;49.47;76.27;;
64545;Laerm;50936;51.660;5.616;2022-10-16T10:00:24;63.08;52.02;76.32;;
64545;Laerm;50936;51.660;5.616;2022-10-16T10:02:52;62.83;54.09;73.06;;
64545;Laerm;50936;51.660;5.616;2022-10-16T10:05:28;61.68;50.03;75.93;;
64545;Laerm;50936;51.660;5.616;2022-10-16T10:08:01;62.15;50.85;70.27;;
64545;Laerm;50936;51.660;5.616;2022-10-16T10:10:42;62.65;51.08;74.93;;
64545;Laerm;50936;51.660;5.616;2022-10-16T10:13:21;64.05;53.30;77.43;;
64545;Laerm;50936;51.660;5.616;2022-10-16T10:15:50;62.03;50.38;70.74;;
64545;Laerm;50936;51.660;5.616;2022-10-16T10:18:22;65.21;53.04;78.96;;
64545;Laerm;50936;51.660;5.616;2022-10-16T10:21:01;63.72;52.31;78.96;;
64545;Laerm;50936;51.660;5.616;2022-10-16T10:23:33;69.03;52.34;102.98;;
64545;Laerm;50936;51.660;5.616;2022-10-16T10:31:47;62.48;51.02;74.79;;
64545;Laerm;50936;51.660;5.616;2022-10-16T10:34:51;63.39;53.09;76.96;;
64545;Laerm;50936;51.660;5.616;2022-10-16T10:46:39;63.97;55.05;76.63;;
64545;Laerm;50936;51.660;5.616;2022-10-16T10:49:50;64.93;52.61;78.41;;
64545;Laerm;50936;51.660;5.616;2022-10-16T10:52:43;62.55;51.50;77.90;;
64545;Laerm;50936;51.660;5.616;2022-10-16T10:55:20;63.22;52.24;78.93;;
64545;Laerm;50936;51.660;5.616;2022-10-16T10:58:24;62.13;50.68;71.38;;
64545;Laerm;50936;51.660;5.616;2022-10-16T11:03:58;63.77;52.56;74.95;;
64545;Laerm;50936;51.660;5.616;2022-10-16T11:11:48;63.60;53.72;77.46;;
64545;Laerm;50936;51.660;5.616;2022-10-16T11:14:50;64.23;54.40;76.67;;
64545;Laerm;50936;51.660;5.616;2022-10-16T11:17:30;62.02;50.92;75.20;;
64545;Laerm;50936;51.660;5.616;2022-10-16T11:20:10;62.82;53.16;74.15;;
64545;Laerm;50936;51.660;5.616;2022-10-16T11:25:22;62.22;50.56;75.29;;
64545;Laerm;50936;51.660;5.616;2022-10-16T11:28:16;65.47;50.15;81.82;;
64545;Laerm;50936;51.660;5.616;2022-10-16T11:31:40;62.94;52.54;78.42;;
64545;Laerm;50936;51.660;5.616;2022-10-16T11:34:12;63.14;51.03;73.43;;
64545;Laerm;50936;51.660;5.616;2022-10-16T11:36:58;63.04;50.56;84.04;;
64545;Laerm;50936;51.660;5.616;2022-10-16T11:39:31;62.76;48.90;79.97;;
64545;Laerm;50936;51.660;5.616;2022-10-16T11:42:16;67.52;47.68;89.09;;
64545;Laerm;50936;51.660;5.616;2022-10-16T11:45:13;63.22;49.36;75.35;;
64545;Laerm;50936;51.660;5.616;2022-10-16T11:51:16;62.41;51.74;75.37;;
64545;Laerm;50936;51.660;5.616;2022-10-16T11:53:51;61.48;50.97;68.43;;
64545;Laerm;50936;51.660;5.616;2022-10-16T11:56:21;63.27;52.82;78.94;;
64545;Laerm;50936;51.660;5.616;2022-10-16T11:59:02;64.01;52.48;76.79;;
64545;Laerm;50936;51.660;5.616;2022-10-16T12:01:44;64.11;48.94;73.58;;
64545;Laerm;50936;51.660;5.616;2022-10-16T12:04:41;63.16;52.03;76.01;;
64545;Laerm;50936;51.660;5.616;2022-10-16T12:07:19;65.37;55.04;79.40;;
64545;Laerm;50936;51.660;5.616;2022-10-16T12:09:48;62.46;52.02;77.16;;
64545;Laerm;50936;51.660;5.616;2022-10-16T12:12:38;67.88;51.44;90.72;;
64545;Laerm;50936;51.660;5.616;2022-10-16T12:17:55;63.71;51.70;81.32;;
64545;Laerm;50936;51.660;5.616;2022-10-16T12:20:27;62.05;51.68;71.12;;
64545;Laerm;50936;51.660;5.616;2022-10-16T12:23:03;63.41;50.69;83.72;;
64545;Laerm;50936;51.660;5.616;2022-10-16T12:25:36;64.85;52.67;83.03;;
64545;Laerm;50936;51.660;5.616;2022-10-16T12:28:25;62.80;51.74;70.49;;
64545;Laerm;50936;51.660;5.616;2022-10-16T12:30:57;63.44;50.70;76.10;;
64545;Laerm;50936;51.660;5.616;2022-10-16T12:33:37;62.60;52.36;77.58;;
64545;Laerm;50936;51.660;5.616;2022-10-16T12:36:26;62.22;50.34;72.43;;
64545;Laerm;50936;51.660;5.616;2022-10-16T12:38:53;64.00;51.08;77.66;;
64545;Laerm;50936;51.660;5.616;2022-10-16T12:41:35;61.06;50.18;70.00;;
64545;Laerm;50936;51.660;5.616;2022-10-16T12:44:04;63.81;52.91;78.91;;
64545;Laerm;50936;51.660;5.616;2022-10-16T12:51:43;60.90;47.24;77.86;;
64545;Laerm;50936;51.660;5.616;2022-10-16T12:54:18;63.23;51.02;75.99;;
64545;Laerm;50936;51.660;5.616;2022-10-16T13:00:28;62.53;49.51;70.44;;
64545;Laerm;50936;51.660;5.616;2022-10-16T13:03:11;62.14;48.05;75.29;;
64545;Laerm;50936;51.660;5.616;2022-10-16T13:06:13;66.01;51.64;87.95;;
64545;Laerm;50936;51.660;5.616;2022-10-16T13:23:15;63.27;46.33;75.55;;
64545;Laerm;50936;51.660;5.616;2022-10-16T13:26:13;64.28;48.78;81.80;;
64545;Laerm;50936;51.660;5.616;2022-10-16T13:28:43;61.70;49.53;72.40;;
64545;Laerm;50936;51.660;5.616;2022-10-16T13:31:19;62.64;50.37;82.55;;
64545;Laerm;50936;51.660;5.616;2022-10-16T13:33:51;61.40;50.97;69.01;;
64545;Laerm;50936;51.660;5.616;2022-10-16T13:36:28;62.64;50.62;74.13;;
64545;Laerm;50936;51.660;5.616;2022-10-16T13:39:15;63.91;53.77;75.92;;
64545;Laerm;50936;51.660;5.616;2022-10-16T13:41:44;64.79;48.36;80.93;;
64545;Laerm;50936;51.660;5.616;2022-10-16T13:44:20;62.01;49.67;70.71;;
64545;Laerm;50936;51.660;5.616;2022-10-16T13:46:59;61.97;51.28;71.02;;
64545;Laerm;50936;51.660;5.616;2022-10-16T13:49:27;62.67;47.83;80.62;;
64545;Laerm;50936;51.660;5.616;2022-10-16T13:51:59;62.05;51.95;76.10;;
64545;Laerm;50936;51.660;5.616;2022-10-16T13:54:27;62.81;50.02;76.73;;
64545;Laerm;50936;51.660;5.616;2022-10-16T13:57:05;64.26;51.08;79.43;;
64545;Laerm;50936;51.660;5.616;2022-10-16T13:59:53;63.01;49.15;75.37;;
64545;Laerm;50936;51.660;5.616;2022-10-16T14:02:38;63.34;51.27;77.49;;
64545;Laerm;50936;51.660;5.616;2022-10-16T14:05:10;63.96;50.68;82.78;;
64545;Laerm;50936;51.660;5.616;2022-10-16T14:07:38;64.49;50.48;74.85;;
64545;Laerm;50936;51.660;5.616;2022-10-16T14:10:27;62.24;50.78;76.85;;
64545;Laerm;50936;51.660;5.616;2022-10-16T14:13:04;62.62;51.83;73.45;;
64545;Laerm;50936;51.660;5.616;2022-10-16T14:15:35;64.86;51.87;78.59;;
64545;Laerm;50936;51.660;5.616;2022-10-16T14:18:04;62.09;52.63;77.95;;
64545;Laerm;50936;51.660;5.616;2022-10-16T14:20:33;65.23;50.93;81.15;;
64545;Laerm;50936;51.660;5.616;2022-10-16T14:23:17;61.98;50.25;73.77;;
64545;Laerm;50936;51.660;5.616;2022-10-16T14:25:45;63.13;50.27;73.27;;
64545;Laerm;50936;51.660;5.616;2022-10-16T14:28:15;64.52;50.44;79.44;;
64545;Laerm;50936;51.660;5.616;2022-10-16T14:31:00;63.22;54.70;78.53;;
64545;Laerm;50936;51.660;5.616;2022-10-16T14:38:36;62.48;50.91;71.88;;
64545;Laerm;50936;51.660;5.616;2022-10-16T14:41:05;64.09;54.20;73.34;;
64545;Laerm;50936;51.660;5.616;2022-10-16T14:43:40;63.27;50.45;79.32;;
64545;Laerm;50936;51.660;5.616;2022-10-16T14:46:14;63.54;51.16;71.35;;
64545;Laerm;50936;51.660;5.616;2022-10-16T14:48:46;65.51;49.73;93.02;;
64545;Laerm;50936;51.660;5.616;2022-10-16T14:51:14;64.70;52.38;84.87;;
64545;Laerm;50936;51.660;5.616;2022-10-16T14:53:42;65.31;50.12;79.08;;
64545;Laerm;50936;51.660;5.616;2022-10-16T14:56:21;63.14;50.35;75.08;;
64545;Laerm;50936;51.660;5.616;2022-10-16T14:58:53;63.49;51.07;76.92;;
64545;Laerm;50936;51.660;5.616;2022-10-16T15:01:20;62.64;50.88;75.43;;
64545;Laerm;50936;51.660;5.616;2022-10-16T15:03:47;62.64;48.87;70.77;;
64545;Laerm;50936;51.660;5.616;2022-10-16T15:06:16;63.19;52.36;76.39;;
64545;Laerm;50936;51.660;5.616;2022-10-16T15:08:43;62.21;48.60;75.13;;
64545;Laerm;50936;51.660;5.616;2022-10-16T15:11:18;62.05;52.01;76.97;;
64545;Laerm;50936;51.660;5.616;2022-10-16T15:13:46;63.92;53.82;75.16;;
64545;Laerm;50936;51.660;5.616;2022-10-16T15:16:15;62.70;51.62;76.14;;
64545;Laerm;50936;51.660;5.616;2022-10-16T15:18:43;64.64;51.56;89.74;;
64545;Laerm;50936;51.660;5.616;2022-10-16T15:21:30;64.64;51.56;89.74;;
64545;Laerm;50936;51.660;5.616;2022-10-16T15:23:59;62.06;50.07;69.84;;
64545;Laerm;50936;51.660;5.616;2022-10-16T15:26:28;61.79;49.49;69.69;;
64545;Laerm;50936;51.660;5.616;2022-10-16T15:28:56;64.47;46.30;75.47;;
64545;Laerm;50936;51.660;5.616;2022-10-16T15:31:24;61.93;50.48;72.29;;
64545;Laerm;50936;51.660;5.616;2022-10-16T15:33:53;62.74;48.69;75.65;;
64545;Laerm;50936;51.660;5.616;2022-10-16T15:36:29;62.40;50.18;78.47;;
64545;Laerm;50936;51.660;5.616;2022-10-16T15:38:56;63.99;50.06;76.93;;
64545;Laerm;50936;51.660;5.616;2022-10-16T15:41:23;64.29;49.79;79.14;;
64545;Laerm;50936;51.660;5.616;2022-10-16T15:43:51;65.24;53.00;86.69;;